Hanjin Philadelphia — A8CN8 — position and weather

sailwx.info

Track history (hours):
 
Tides and Currents Weather Stations Pressure Air Temp Water Temp Dewpoint Dewpoint Depression Visibility Wind Speed Wind Dir Waves Ship Positions

Hanjin Philadelphia

Last reported at 2015-Jun-30 20:33 UTC. Time now 2015-Jun-30 21:26 UTC.
Position N 42°56' E 007°01'.

Length 282.1 m; beam 32.2 m; draft 13 m.

Type: Ship. MMSI: 636026894.

Date/timePositionNaut miles runAvg speedWind from/ knotsBaromVisibWave heightAir tempDewpointWater temp
2015-Jun-30 20:33N 42°56' E 007°01'1110.7
2015-Jun-30 19:33N 42°52' E 006°47'1110.6
2015-Jun-30 18:33N 42°48' E 006°34'1010.3
2015-Jun-30 17:33N 42°47' E 006°20'1010.4
2015-Jun-30 16:33N 42°47' E 006°06'1010.3
2015-Jun-30 15:34N 42°47' E 005°52'1010.4
2015-Jun-30 14:33N 42°47' E 005°38'10 9.7
2015-Jun-30 13:33N 42°53' E 005°27'10 9.8
2015-Jun-30 12:34N 42°60' E 005°17'814.7
2015-Jun-30 12:00N 43°00' E 005°06'715.6 150 / 171019.0 5.4 0.525.522.023.2
2015-Jun-30 11:33N 43°07' E 005°08'1010.1
2015-Jun-30 10:33N 43°15' E 004°60'10 9.7
2015-Jun-30 09:34N 43°24' E 004°54'3 3.2
2015-Jun-30 08:31N 43°25' E 004°50'0 0.0
2015-Jun-30 07:31N 43°25' E 004°50'0 0.0
2015-Jun-30 06:31N 43°25' E 004°50'0 0.0
2015-Jun-30 05:31N 43°25' E 004°50'0 0.0
2015-Jun-30 04:31N 43°25' E 004°50'0 0.0
2015-Jun-30 03:31N 43°25' E 004°50'0 0.0
2015-Jun-30 02:31N 43°25' E 004°50'0 0.0
2015-Jun-30 01:31N 43°25' E 004°50'0 0.0
2015-Jun-30 00:31N 43°25' E 004°50'0 0.0
2015-Jun-29 23:31N 43°25' E 004°50'0 0.0
2015-Jun-29 22:31N 43°25' E 004°50'0 0.0
2015-Jun-29 21:31N 43°25' E 004°50'0 0.0
2015-Jun-29 20:31N 43°25' E 004°50'0 0.0
2015-Jun-29 19:31N 43°25' E 004°50'0 0.0
2015-Jun-29 18:31N 43°25' E 004°50'0 0.0
2015-Jun-29 17:31N 43°25' E 004°50'0 0.0
2015-Jun-29 16:31N 43°25' E 004°50'0 0.0
2015-Jun-29 15:31N 43°25' E 004°50'0 0.0
2015-Jun-29 14:31N 43°25' E 004°50'0 0.0
2015-Jun-29 13:31N 43°25' E 004°50'0 0.0
2015-Jun-29 12:31N 43°25' E 004°50'0 0.0
2015-Jun-29 11:31N 43°25' E 004°50'0 0.0
2015-Jun-29 10:31N 43°25' E 004°50'0 0.0
2015-Jun-29 09:31N 43°25' E 004°50'0 0.0
2015-Jun-29 08:31N 43°25' E 004°50'0 0.0
2015-Jun-29 07:31N 43°25' E 004°50'0 0.0
2015-Jun-29 06:31N 43°25' E 004°50'0 0.0
2015-Jun-29 05:31N 43°25' E 004°50'0 0.0
2015-Jun-29 04:31N 43°25' E 004°50'0 0.0
2015-Jun-29 03:31N 43°25' E 004°50'6 6.1
2015-Jun-29 02:33N 43°23' E 004°58'1110.6
2015-Jun-29 01:34N 43°13' E 005°02'1413.5
2015-Jun-29 00:33N 43°01' E 004°52'1514.9
2015-Jun-28 23:33N 42°49' E 004°40'1515.0
2015-Jun-28 22:33N 42°37' E 004°28'1515.3
2015-Jun-28 21:33N 42°25' E 004°15'1615.9
2015-Jun-28 20:33N 42°12' E 004°02'1615.9
2015-Jun-28 19:33N 41°60' E 003°49'1615.7
2015-Jun-28 18:30N 41°46' E 003°36'1515.8
2015-Jun-28 17:33N 41°34' E 003°24'1615.7
2015-Jun-28 16:33N 41°22' E 003°12'1615.9
2015-Jun-28 15:33N 41°09' E 002°59'1616.5
2015-Jun-28 14:33N 40°56' E 002°46'1616.2
2015-Jun-28 13:33N 40°43' E 002°33'1716.7
2015-Jun-28 12:33N 40°30' E 002°20'1717.2
2015-Jun-28 11:33N 40°16' E 002°06'1717.0
2015-Jun-28 10:33N 40°02' E 001°53'1716.6
2015-Jun-28 09:33N 39°49' E 001°40'1716.5
2015-Jun-28 08:30N 39°35' E 001°26'1616.6
2015-Jun-28 07:33N 39°23' E 001°14'1717.0
2015-Jun-28 06:33N 39°09' E 001°01'1716.9
2015-Jun-28 05:33N 38°55' E 000°48'1717.2
2015-Jun-28 04:33N 38°42' E 000°34'1717.1
2015-Jun-28 03:33N 38°28' E 000°21'1817.1
2015-Jun-28 02:31N 38°14' E 000°08'1616.9
2015-Jun-28 01:33N 38°00' W 000°04'1717.0
2015-Jun-28 00:33N 37°47' W 000°17'1717.0
2015-Jun-27 23:33N 37°34' W 000°31'1716.7
2015-Jun-27 22:34N 37°22' W 000°46'1716.9
2015-Jun-27 21:34N 37°11' W 001°02'1716.8
2015-Jun-27 20:34N 37°00' W 001°18'1716.8
2015-Jun-27 19:33N 36°49' W 001°34'1717.2
2015-Jun-27 18:33N 36°38' W 001°50'1818.4
2015-Jun-27 17:33N 36°25' W 002°07'1919.1
2015-Jun-27 16:33N 36°20' W 002°30'2020.0
2015-Jun-27 15:34N 36°17' W 002°54'2020.4
2015-Jun-27 14:34N 36°14' W 003°19'5822.5
2015-Jun-27 12:00N 36°06' W 004°30'3217.4 050 / 161019.010.8 23.019.320.9
2015-Jun-27 10:10N 36°01' W 005°09'1220.5
2015-Jun-27 09:33N 35°58' W 005°24'14716.1
2015-Jun-27 00:23N 36°19' W 008°24'1616.6
2015-Jun-26 23:25N 36°23' W 008°44'1416.5
2015-Jun-26 22:33N 36°26' W 009°01'1716.6
2015-Jun-26 21:33N 36°31' W 009°21'1717.0
2015-Jun-26 20:33N 36°43' W 009°36'1716.7
2015-Jun-26 19:33N 36°59' W 009°41'1717.3
2015-Jun-26 18:33N 37°16' W 009°43'1717.3
2015-Jun-26 17:33N 37°26' W 009°25'1717.3
2015-Jun-26 16:33N 37°35' W 009°06'1615.6
2015-Jun-26 15:33N 37°48' W 008°55'9 8.2
2015-Jun-26 14:29N 37°56' W 008°51'0 0.0
2015-Jun-26 13:32N 37°56' W 008°51'0 0.0
2015-Jun-26 12:32N 37°56' W 008°51'0 0.0
2015-Jun-26 11:32N 37°56' W 008°51'0 0.0
2015-Jun-26 10:32N 37°56' W 008°51'0 0.0
2015-Jun-26 09:32N 37°56' W 008°51'0 0.0
2015-Jun-26 08:32N 37°56' W 008°51'0 0.0
2015-Jun-26 07:32N 37°56' W 008°51'0 0.0
2015-Jun-26 06:32N 37°56' W 008°51'0 0.0
2015-Jun-26 05:32N 37°56' W 008°51'0 0.0
2015-Jun-26 04:32N 37°56' W 008°51'0 0.0
2015-Jun-26 03:32N 37°56' W 008°51'0 0.0
2015-Jun-26 02:32N 37°56' W 008°51'0 0.0
2015-Jun-26 01:32N 37°56' W 008°51'0 0.0
2015-Jun-26 00:32N 37°56' W 008°51'0 0.0
2015-Jun-25 23:32N 37°56' W 008°51'0 0.2
2015-Jun-25 22:33N 37°56' W 008°51'5 5.0
2015-Jun-25 21:33N 37°51' W 008°52'1414.4
2015-Jun-25 20:34N 37°38' W 009°00'2020.4
2015-Jun-25 19:34N 37°19' W 009°11'2020.3
2015-Jun-25 18:33N 37°01' W 009°21'1919.3
2015-Jun-25 17:33N 36°45' W 009°07'8785.6
2015-Jun-25 16:33N 36°17' W 007°25'10 9.7
2015-Jun-25 15:33N 36°14' W 007°14'9012.3
2015-Jun-25 08:15N 36°00' W 005°24'1318.7
2015-Jun-25 07:33N 36°04' W 005°09'10520.0
2015-Jun-25 02:18N 36°20' W 003°00'1621.1
2015-Jun-25 01:34N 36°22' W 002°41'2221.7
2015-Jun-25 00:32N 36°26' W 002°14'1630.9
2015-Jun-25 00:00N 36°30' W 001°54'1418.3 060 / 141020.010.8 23.520.623.0
2015-Jun-24 23:14N 36°43' W 001°47'1621.1
2015-Jun-24 22:28N 36°53' W 001°32'2021.2
2015-Jun-24 21:33N 37°06' W 001°13'2121.0
2015-Jun-24 20:33N 37°20' W 000°53'2121.3
2015-Jun-24 19:33N 37°34' W 000°34'2121.2
2015-Jun-24 18:34N 37°52' W 000°19'2221.4
2015-Jun-24 17:33N 38°10' W 000°04'2121.2
2015-Jun-24 16:33N 38°28' E 000°11'2221.5
2015-Jun-24 15:33N 38°46' E 000°25'4220.6
2015-Jun-24 13:29N 39°19' W 000°09'11 9.6
2015-Jun-24 12:22N 39°26' W 000°19'0 0.0
2015-Jun-24 11:31N 39°26' W 000°19'0 0.0
2015-Jun-24 10:32N 39°26' W 000°19'0 0.0
2015-Jun-24 09:31N 39°26' W 000°19'0 0.0
2015-Jun-24 08:31N 39°26' W 000°19'0 0.0
2015-Jun-24 07:31N 39°26' W 000°19'0 0.0
2015-Jun-24 06:28N 39°26' W 000°19'0 0.0
2015-Jun-24 05:31N 39°26' W 000°19'0 0.0
2015-Jun-24 04:31N 39°26' W 000°19'0 0.0
2015-Jun-24 03:31N 39°26' W 000°19'0 0.0
2015-Jun-24 02:28N 39°26' W 000°19'0 0.0
2015-Jun-24 01:31N 39°26' W 000°19'0 0.0
2015-Jun-24 00:31N 39°26' W 000°19'0 0.0
2015-Jun-23 23:25N 39°26' W 000°19'0 0.0
2015-Jun-23 22:31N 39°26' W 000°19'0 0.0
2015-Jun-23 21:31N 39°26' W 000°19'0 0.0
2015-Jun-23 20:28N 39°26' W 000°19'0 0.0
2015-Jun-23 19:31N 39°26' W 000°19'0 0.0
2015-Jun-23 19:01N 39°26' W 000°19'171 7.3
2015-Jun-22 19:33N 38°57' E 003°18'1111.5
2015-Jun-22 18:34N 38°55' E 003°32'1211.6
2015-Jun-22 17:30N 38°52' E 003°48'1111.7
2015-Jun-22 16:33N 38°50' E 004°02'1211.5
2015-Jun-22 15:32N 38°48' E 004°17'1111.7
2015-Jun-22 14:33N 38°45' E 004°31'1211.7
2015-Jun-22 13:33N 38°43' E 004°45'1211.6
2015-Jun-22 12:34N 38°40' E 004°60'1917.6
2015-Jun-22 11:28N 38°36' E 005°24'1718.9
2015-Jun-22 10:33N 38°33' E 005°46'11618.7
2015-Jun-22 04:19N 38°09' E 008°11'1818.8
2015-Jun-22 03:22N 38°05' E 008°33'1619.0
2015-Jun-22 02:32N 38°02' E 008°53'1919.0
2015-Jun-22 01:33N 37°58' E 009°16'17018.4
2015-Jun-21 16:19N 36°55' E 012°34'1417.8
2015-Jun-21 15:33N 36°50' E 012°50'1817.9
2015-Jun-21 14:34N 36°44' E 013°11'1818.1
2015-Jun-21 13:34N 36°38' E 013°33'1918.5
2015-Jun-21 12:34N 36°32' E 013°54'1221.6
2015-Jun-21 12:00N 36°24' E 014°06'920.6 290 / 211013.0 5.4 1.027.021.321.3
2015-Jun-21 11:34N 36°26' E 014°17'1918.9
2015-Jun-21 10:34N 36°20' E 014°39'1919.2
2015-Jun-21 09:33N 36°19' E 015°03'  
Track history (hours):
 
Tides and Currents Weather Stations Pressure Air Temp Water Temp Dewpoint Dewpoint Depression Visibility Wind Speed Wind Dir Waves Ship Positions

Hanjin Philadelphia

Last reported at 2015-Jun-30 20:33 UTC. Time now 2015-Jun-30 21:26 UTC.
Position N 42°56' E 007°01'.

Length 282.1 m; beam 32.2 m; draft 13 m.

Type: Ship. MMSI: 636026894.

Date/timePositionNaut miles runAvg speedWind from/ knotsBaromVisibWave heightAir tempDewpointWater temp
2015-Jun-30 20:33N 42°56' E 007°01'1110.7
2015-Jun-30 19:33N 42°52' E 006°47'1110.6
2015-Jun-30 18:33N 42°48' E 006°34'1010.3
2015-Jun-30 17:33N 42°47' E 006°20'1010.4
2015-Jun-30 16:33N 42°47' E 006°06'1010.3
2015-Jun-30 15:34N 42°47' E 005°52'1010.4
2015-Jun-30 14:33N 42°47' E 005°38'10 9.7
2015-Jun-30 13:33N 42°53' E 005°27'10 9.8
2015-Jun-30 12:34N 42°60' E 005°17'814.7
2015-Jun-30 12:00N 43°00' E 005°06'715.6 150 / 171019.0 5.4 0.525.522.023.2
2015-Jun-30 11:33N 43°07' E 005°08'1010.1
2015-Jun-30 10:33N 43°15' E 004°60'10 9.7
2015-Jun-30 09:34N 43°24' E 004°54'3 3.2
2015-Jun-30 08:31N 43°25' E 004°50'0 0.0
2015-Jun-30 07:31N 43°25' E 004°50'0 0.0
2015-Jun-30 06:31N 43°25' E 004°50'0 0.0
2015-Jun-30 05:31N 43°25' E 004°50'0 0.0
2015-Jun-30 04:31N 43°25' E 004°50'0 0.0
2015-Jun-30 03:31N 43°25' E 004°50'0 0.0
2015-Jun-30 02:31N 43°25' E 004°50'0 0.0
2015-Jun-30 01:31N 43°25' E 004°50'0 0.0
2015-Jun-30 00:31N 43°25' E 004°50'0 0.0
2015-Jun-29 23:31N 43°25' E 004°50'0 0.0
2015-Jun-29 22:31N 43°25' E 004°50'0 0.0
2015-Jun-29 21:31N 43°25' E 004°50'0 0.0
2015-Jun-29 20:31N 43°25' E 004°50'0 0.0
2015-Jun-29 19:31N 43°25' E 004°50'0 0.0
2015-Jun-29 18:31N 43°25' E 004°50'0 0.0
2015-Jun-29 17:31N 43°25' E 004°50'0 0.0
2015-Jun-29 16:31N 43°25' E 004°50'0 0.0
2015-Jun-29 15:31N 43°25' E 004°50'0 0.0
2015-Jun-29 14:31N 43°25' E 004°50'0 0.0
2015-Jun-29 13:31N 43°25' E 004°50'0 0.0
2015-Jun-29 12:31N 43°25' E 004°50'0 0.0
2015-Jun-29 11:31N 43°25' E 004°50'0 0.0
2015-Jun-29 10:31N 43°25' E 004°50'0 0.0
2015-Jun-29 09:31N 43°25' E 004°50'0 0.0
2015-Jun-29 08:31N 43°25' E 004°50'0 0.0
2015-Jun-29 07:31N 43°25' E 004°50'0 0.0
2015-Jun-29 06:31N 43°25' E 004°50'0 0.0
2015-Jun-29 05:31N 43°25' E 004°50'0 0.0
2015-Jun-29 04:31N 43°25' E 004°50'0 0.0
2015-Jun-29 03:31N 43°25' E 004°50'6 6.1
2015-Jun-29 02:33N 43°23' E 004°58'1110.6
2015-Jun-29 01:34N 43°13' E 005°02'1413.5
2015-Jun-29 00:33N 43°01' E 004°52'1514.9
2015-Jun-28 23:33N 42°49' E 004°40'1515.0
2015-Jun-28 22:33N 42°37' E 004°28'1515.3
2015-Jun-28 21:33N 42°25' E 004°15'1615.9
2015-Jun-28 20:33N 42°12' E 004°02'1615.9
2015-Jun-28 19:33N 41°60' E 003°49'1615.7
2015-Jun-28 18:30N 41°46' E 003°36'1515.8
2015-Jun-28 17:33N 41°34' E 003°24'1615.7
2015-Jun-28 16:33N 41°22' E 003°12'1615.9
2015-Jun-28 15:33N 41°09' E 002°59'1616.5
2015-Jun-28 14:33N 40°56' E 002°46'1616.2
2015-Jun-28 13:33N 40°43' E 002°33'1716.7
2015-Jun-28 12:33N 40°30' E 002°20'1717.2
2015-Jun-28 11:33N 40°16' E 002°06'1717.0
2015-Jun-28 10:33N 40°02' E 001°53'1716.6
2015-Jun-28 09:33N 39°49' E 001°40'1716.5
2015-Jun-28 08:30N 39°35' E 001°26'1616.6
2015-Jun-28 07:33N 39°23' E 001°14'1717.0
2015-Jun-28 06:33N 39°09' E 001°01'1716.9
2015-Jun-28 05:33N 38°55' E 000°48'1717.2
2015-Jun-28 04:33N 38°42' E 000°34'1717.1
2015-Jun-28 03:33N 38°28' E 000°21'1817.1
2015-Jun-28 02:31N 38°14' E 000°08'1616.9
2015-Jun-28 01:33N 38°00' W 000°04'1717.0
2015-Jun-28 00:33N 37°47' W 000°17'1717.0
2015-Jun-27 23:33N 37°34' W 000°31'1716.7
2015-Jun-27 22:34N 37°22' W 000°46'1716.9
2015-Jun-27 21:34N 37°11' W 001°02'1716.8
2015-Jun-27 20:34N 37°00' W 001°18'1716.8
2015-Jun-27 19:33N 36°49' W 001°34'1717.2
2015-Jun-27 18:33N 36°38' W 001°50'1818.4
2015-Jun-27 17:33N 36°25' W 002°07'1919.1
2015-Jun-27 16:33N 36°20' W 002°30'2020.0
2015-Jun-27 15:34N 36°17' W 002°54'2020.4
2015-Jun-27 14:34N 36°14' W 003°19'5822.5
2015-Jun-27 12:00N 36°06' W 004°30'3217.4 050 / 161019.010.8 23.019.320.9
2015-Jun-27 10:10N 36°01' W 005°09'1220.5
2015-Jun-27 09:33N 35°58' W 005°24'14716.1
2015-Jun-27 00:23N 36°19' W 008°24'1616.6
2015-Jun-26 23:25N 36°23' W 008°44'1416.5
2015-Jun-26 22:33N 36°26' W 009°01'1716.6
2015-Jun-26 21:33N 36°31' W 009°21'1717.0
2015-Jun-26 20:33N 36°43' W 009°36'1716.7
2015-Jun-26 19:33N 36°59' W 009°41'1717.3
2015-Jun-26 18:33N 37°16' W 009°43'1717.3
2015-Jun-26 17:33N 37°26' W 009°25'1717.3
2015-Jun-26 16:33N 37°35' W 009°06'1615.6
2015-Jun-26 15:33N 37°48' W 008°55'9 8.2
2015-Jun-26 14:29N 37°56' W 008°51'0 0.0
2015-Jun-26 13:32N 37°56' W 008°51'0 0.0
2015-Jun-26 12:32N 37°56' W 008°51'0 0.0
2015-Jun-26 11:32N 37°56' W 008°51'0 0.0
2015-Jun-26 10:32N 37°56' W 008°51'0 0.0
2015-Jun-26 09:32N 37°56' W 008°51'0 0.0
2015-Jun-26 08:32N 37°56' W 008°51'0 0.0
2015-Jun-26 07:32N 37°56' W 008°51'0 0.0
2015-Jun-26 06:32N 37°56' W 008°51'0 0.0
2015-Jun-26 05:32N 37°56' W 008°51'0 0.0
2015-Jun-26 04:32N 37°56' W 008°51'0 0.0
2015-Jun-26 03:32N 37°56' W 008°51'0 0.0
2015-Jun-26 02:32N 37°56' W 008°51'0 0.0
2015-Jun-26 01:32N 37°56' W 008°51'0 0.0
2015-Jun-26 00:32N 37°56' W 008°51'0 0.0
2015-Jun-25 23:32N 37°56' W 008°51'0 0.2
2015-Jun-25 22:33N 37°56' W 008°51'5 5.0
2015-Jun-25 21:33N 37°51' W 008°52'1414.4
2015-Jun-25 20:34N 37°38' W 009°00'2020.4
2015-Jun-25 19:34N 37°19' W 009°11'2020.3
2015-Jun-25 18:33N 37°01' W 009°21'1919.3
2015-Jun-25 17:33N 36°45' W 009°07'8785.6
2015-Jun-25 16:33N 36°17' W 007°25'10 9.7
2015-Jun-25 15:33N 36°14' W 007°14'9012.3
2015-Jun-25 08:15N 36°00' W 005°24'1318.7
2015-Jun-25 07:33N 36°04' W 005°09'10520.0
2015-Jun-25 02:18N 36°20' W 003°00'1621.1
2015-Jun-25 01:34N 36°22' W 002°41'2221.7
2015-Jun-25 00:32N 36°26' W 002°14'1630.9
2015-Jun-25 00:00N 36°30' W 001°54'1418.3 060 / 141020.010.8 23.520.623.0
2015-Jun-24 23:14N 36°43' W 001°47'1621.1
2015-Jun-24 22:28N 36°53' W 001°32'2021.2
2015-Jun-24 21:33N 37°06' W 001°13'2121.0
2015-Jun-24 20:33N 37°20' W 000°53'2121.3
2015-Jun-24 19:33N 37°34' W 000°34'2121.2
2015-Jun-24 18:34N 37°52' W 000°19'2221.4
2015-Jun-24 17:33N 38°10' W 000°04'2121.2
2015-Jun-24 16:33N 38°28' E 000°11'2221.5
2015-Jun-24 15:33N 38°46' E 000°25'4220.6
2015-Jun-24 13:29N 39°19' W 000°09'11 9.6
2015-Jun-24 12:22N 39°26' W 000°19'0 0.0
2015-Jun-24 11:31N 39°26' W 000°19'0 0.0
2015-Jun-24 10:32N 39°26' W 000°19'0 0.0
2015-Jun-24 09:31N 39°26' W 000°19'0 0.0
2015-Jun-24 08:31N 39°26' W 000°19'0 0.0
2015-Jun-24 07:31N 39°26' W 000°19'0 0.0
2015-Jun-24 06:28N 39°26' W 000°19'0 0.0
2015-Jun-24 05:31N 39°26' W 000°19'0 0.0
2015-Jun-24 04:31N 39°26' W 000°19'0 0.0
2015-Jun-24 03:31N 39°26' W 000°19'0 0.0
2015-Jun-24 02:28N 39°26' W 000°19'0 0.0
2015-Jun-24 01:31N 39°26' W 000°19'0 0.0
2015-Jun-24 00:31N 39°26' W 000°19'0 0.0
2015-Jun-23 23:25N 39°26' W 000°19'0 0.0
2015-Jun-23 22:31N 39°26' W 000°19'0 0.0
2015-Jun-23 21:31N 39°26' W 000°19'0 0.0
2015-Jun-23 20:28N 39°26' W 000°19'0 0.0
2015-Jun-23 19:31N 39°26' W 000°19'0 0.0
2015-Jun-23 19:01N 39°26' W 000°19'171 7.3
2015-Jun-22 19:33N 38°57' E 003°18'1111.5
2015-Jun-22 18:34N 38°55' E 003°32'1211.6
2015-Jun-22 17:30N 38°52' E 003°48'1111.7
2015-Jun-22 16:33N 38°50' E 004°02'1211.5
2015-Jun-22 15:32N 38°48' E 004°17'1111.7
2015-Jun-22 14:33N 38°45' E 004°31'1211.7
2015-Jun-22 13:33N 38°43' E 004°45'1211.6
2015-Jun-22 12:34N 38°40' E 004°60'1917.6
2015-Jun-22 11:28N 38°36' E 005°24'1718.9
2015-Jun-22 10:33N 38°33' E 005°46'11618.7
2015-Jun-22 04:19N 38°09' E 008°11'1818.8
2015-Jun-22 03:22N 38°05' E 008°33'1619.0
2015-Jun-22 02:32N 38°02' E 008°53'1919.0
2015-Jun-22 01:33N 37°58' E 009°16'17018.4
2015-Jun-21 16:19N 36°55' E 012°34'1417.8
2015-Jun-21 15:33N 36°50' E 012°50'1817.9
2015-Jun-21 14:34N 36°44' E 013°11'1818.1
2015-Jun-21 13:34N 36°38' E 013°33'1918.5
2015-Jun-21 12:34N 36°32' E 013°54'1221.6
2015-Jun-21 12:00N 36°24' E 014°06'920.6 290 / 211013.0 5.4 1.027.021.321.3
2015-Jun-21 11:34N 36°26' E 014°17'1918.9
2015-Jun-21 10:34N 36°20' E 014°39'1919.2
2015-Jun-21 09:33N 36°19' E 015°03'  

Dump ship's entire track history